TIST/STT METAR and TAF weather

Enter ICAO airport designator
Station Type Date Time Source
TIST METAR 2021/03/05 07:53 UTC NOAA

TIST 050753Z AUTO 12006KT 10SM FEW020 26/20 A2994 RMK AO2 SLP138 T02560200


Station Type Date Time Source
TIST Decoded METAR 2021/03/05 07:53 UTC NOAA

Charlotte Amalie St. Thomas, Cyril E. King Airport, Virgin Islands (TIST) 18-20N 064-59W
Mar 05, 2021 - 02:53 AM EST / 2021.03.05 0753 UTC
Wind: from the ESE (120 degrees) at 7 MPH (6 KT):0
Visibility: 10 mile(s):0
Sky conditions: mostly clear
Temperature: 78.1 F (25.6 C)
Dew Point: 68.0 F (20.0 C)
Relative Humidity: 71%
Pressure (altimeter): 29.94 in. Hg (1013 hPa)
ob: TIST 050753Z AUTO 12006KT 10SM FEW020 26/20 A2994 RMK AO2 SLP138 T02560200
cycle: 8

Station Type Date Time Source
TIST TAF 2021/03/05 06:24 UTC NOAA

TAF TIST 050520Z 0506/0606 14006KT P6SM FEW023
FM051400 14010KT P6SM FEW028
FM052200 11007KT P6SM FEW030 SCT080

Example: see airport list